Tiempo atmosférico en la estación meteorológica de Mosqueruela, Teruel (1505 m.)



Fecha
DESCASC
Temp. máxima en grados centígrados (hora)
DESCASC
Temp. mínima en grados centígrados (hora)
DESCASC
Temp. media en grados centígrados
DESCASC
Racha de viento máxima en m/sg (hora)
DESCASC
Velocidad máxima media en intervalos de 10 minutos(hora)
DESCASC
Precipitaciones diarias en mm
DESCASC
Precipitaciones de 00:00 a 06:00 en mm
DESCASC
Precipitaciones de 06:00 a 12:00 en mm
DESCASC
Precipitaciones de 12:00 a 18:00 en mm
DESCASC
Precipitaciones de 18:00 a 24:00 en mm
DESCASC
23-05-2020 23.7 (15:10) 13.6 (04:50) 18.7 9.72 (17:10) 6.67 (17:10) 5.6 0 0 5.4 0.2
22-05-2020 24.2 (13:10) 12.7 (06:10) 18.5 8.33 (17:20) 5.83 (16:50) 0 0 0 0 0
21-05-2020 22.3 (13:10) 9.7 (00:00) 16 7.5 (14:50) 5 (16:30) 0 0 0 0 0
20-05-2020 22.8 (16:30) 9.5 (00:00) 16.1 7.5 (13:40) 5 (01:20) 0 0 0 0 0
19-05-2020 21.4 (15:50) 7.4 (03:30) 14.4 7.22 (22:40) 5.56 (22:40) 0 0 0 0 0
18-05-2020 19.3 (16:10) 5 (00:00) 12.1 10.56 (11:50) 5.83 (00:10) 0 0 0 0 0
17-05-2020 14.9 (17:40) 4.8 (00:00) 9.8 11.11 (02:50) 8.06 (02:50) 0 0 0 0 0
16-05-2020 13.3 (16:40) 5.2 (00:00) 9.3 10.83 (18:30) 7.5 (19:20) 13.2 9.6 0 0.4 3.2
15-05-2020 12.5 (11:40) 4.3 (06:30) 8.4 13.06 (03:30) 8.89 (03:40) 8.4 0.2 0 1.2 7
14-05-2020 8 (15:10) 4.4 (00:00) 6.2 12.22 (22:30) 8.61 (21:50) 11.6 0 7.6 3 1
13-05-2020 13.6 (17:30) 3.2 (00:00) 8.4 11.67 (07:40) 7.22 (07:50) 2.4 2 0 0 0.4
12-05-2020 15.2 (12:50) 6 (06:00) 10.6 11.11 (01:20) 6.67 (01:10) 2.2 0 0 0.2 2
11-05-2020 15.3 (15:40) 5.5 (00:00) 10.4 17.78 (09:10) 11.11 (05:40) 0.4 0 0 0 0.4
10-05-2020 12 (14:10) 6.8 (00:00) 9.4 14.72 (16:50) 9.17 (16:50) 1.2 0.6 0.6 0 0
09-05-2020 18.4 (10:20) 9.5 (02:50) 13.9 11.11 (06:40) 7.78 (06:40) 0.6 0 0 0 0.6
08-05-2020 19.6 (13:00) 7.9 (00:00) 13.8 11.67 (14:10) 7.22 (14:10) 0 0 0 0 0
07-05-2020 18 (16:10) 8.9 (00:00) 13.4 8.61 (14:30) 5.83 (10:20) 0 0 0 0 0
06-05-2020 20.6 (14:10) 8.5 (00:00) 14.6 9.17 (10:30) 5.56 (16:00) 0 0 0 0 0
05-05-2020 20.8 (18:10) 11.7 (00:00) 16.2 11.39 (14:20) 6.67 (14:20) 0 0 0 0 0
04-05-2020 22.7 (15:50) 11.6 (00:00) 17.2 10.83 (02:40) 7.78 (02:50) 0 0 0 0 0
03-05-2020 21.8 (14:00) 9.2 (05:00) 15.5 9.72 (16:20) 6.39 (06:40) 0 0 0 0 0
02-05-2020 20.9 (17:10) 9.8 (06:30) 15.3 15.28 (08:10) 9.72 (08:20) 0 0 0 0 0
01-05-2020 17.8 (15:00) 7.6 (00:00) 12.7 21.11 (12:00) 12.78 (14:00) 0 0 0 0 0
30-04-2020 13.4 (13:40) 6.9 (08:40) 10.1 17.5 (04:00) 12.5 (04:00) 0 0 0 0 0
29-04-2020 15.9 (16:50) 2.1 (00:00) 9 16.39 (08:50) 11.39 (08:50) 0 0 0 0 0
28-04-2020 12.2 (15:10) 3.5 (07:00) 7.8 15.28 (04:30) 10.83 (04:20) 0 0 0 0 0
27-04-2020 13.3 (15:20) 5 (00:00) 9.2 10.56 (20:30) 6.94 (22:50) 4.6 1.8 1.8 0 1
26-04-2020 15.4 (11:50) 6.6 (02:50) 11 7.5 (05:30) 6.11 (05:30) 1.4 0 0 1.2 0.2

Gráficas

Temp. máximas Temp. mínimas Temp. medias Precipitaciones Rachas de viento máximas Velocidades máximas media en intervalos de 10 minutos

Datos horarios

Fecha y hora oficial Temperatura (ºC) Velocidad del viento (km/h) Dirección del viento Racha (km/h) Dirección de racha Precipitación (mm) Presión (hPa) Tendencia (hPa) Humedad (%)
2020-05-25 23:00:00 12.5 11 Noroeste 16 Oeste 0 -- -- 96
2020-05-25 22:00:00 11.9 0 Calma 8 Sudoeste 0 -- -- 94
2020-05-25 21:00:00 13.2 5 Sur 8 Este 0 -- -- 90
2020-05-25 20:00:00 15 5 Este 16 Sur 0 -- -- 79
2020-05-25 19:00:00 16 10 Sur 18 Sur 0 -- -- 67
2020-05-25 18:00:00 18.3 13 Sudeste 22 Sudeste 0 -- -- 63
2020-05-25 17:00:00 19.3 9 Sur 26 Sur 0 -- -- 61
2020-05-25 16:00:00 16 19 Sudeste 27 Sur 0 -- -- 74
2020-05-25 15:00:00 15.1 7 Sur 17 Sur 0 -- -- 80
2020-05-25 14:00:00 12.6 11 Sudeste 15 Sudeste 0 -- -- 90
2020-05-25 13:00:00 12.3 5 Sudeste 13 Sur 1 -- -- 95
2020-05-25 12:00:00 13.2 2 Sudoeste 12 Este 0.6 -- -- 90
2020-05-25 11:00:00 13.5 2 Noroeste 10 Sudeste 0 -- -- 85
2020-05-25 10:00:00 13 8 Sudeste 13 Sudeste 0 -- -- 87
2020-05-25 09:00:00 14.1 4 Este 9 Este 0 -- -- 87
2020-05-25 08:00:00 13 3 Oeste 6 Norte 0 -- -- 93
2020-05-25 07:00:00 11.9 0 Calma 11 Sudoeste 0 -- -- 89
2020-05-25 06:00:00 12.5 7 Oeste 14 Sudoeste 0 -- -- 88
2020-05-25 05:00:00 13.4 6 Sur 12 Sur 0 -- -- 85
2020-05-25 04:00:00 13.7 3 Sudoeste 9 Sur 0 -- -- 85
2020-05-25 03:00:00 13.5 5 Sudeste 17 Sudoeste 0 -- -- 85
2020-05-25 02:00:00 14 11 Sudoeste 16 Sudoeste 0 -- -- 85
2020-05-25 01:00:00 13.3 12 Sudoeste 16 Sudoeste 0 -- -- 90
2020-05-25 00:00:00 13.2 7 Sudoeste 10 Sudoeste 0 -- -- 90
2020-05-24 23:00:00 13.1 3 Sudoeste 6 Sudoeste 0 -- -- 94
2020-05-24 22:00:00 13.3 3 Oeste 13 Sudeste 0 -- -- 96
2020-05-24 21:00:00 14 10 Sudeste 22 Sur 0 -- -- 96
2020-05-24 20:00:00 14.7 11 Sudeste 21 Sudeste 0 -- -- 92
2020-05-24 19:00:00 15.9 10 Sur 20 Sudeste 0 -- -- 87
2020-05-24 18:00:00 18.6 12 Sudeste 22 Sur 0 -- -- 76
2020-05-24 17:00:00 18.5 14 Sudeste 24 Sudeste 0 -- -- 75
2020-05-24 16:00:00 19 12 Sudeste 23 Sur 0 -- -- 71
2020-05-24 15:00:00 18.1 14 Sur 27 Sudeste 0 -- -- 68
2020-05-24 14:00:00 17.5 17 Sudeste 28 Sudeste 0 -- -- 70
2020-05-24 13:00:00 17.5 15 Sur 26 Sudeste 0 -- -- 71
2020-05-24 12:00:00 17 14 Sudeste 23 Sudeste 0 -- -- 67
2020-05-24 11:00:00 16.6 13 Sur 20 Sur 0 -- -- 66
2020-05-24 10:00:00 14.7 10 Sudeste 17 Sudeste 0 -- -- 72
2020-05-24 09:00:00 12.2 4 Sudeste 9 Sur 0 -- -- 88
2020-05-24 08:00:00 10.2 5 Este 9 Sudeste 0 -- -- 95
2020-05-24 07:00:00 10.1 2 Sur 10 Este 0 -- -- 96
2020-05-24 06:00:00 10.6 6 Este 9 Este 0 -- -- 99
2020-05-24 05:00:00 11 5 Este 10 Nordeste 0 -- -- 98
2020-05-24 04:00:00 11.3 5 Nordeste 14 Nordeste 0 -- -- 97
2020-05-24 03:00:00 11.6 12 Nordeste 17 Este 0 -- -- 99
2020-05-24 02:00:00 12.8 7 Este 15 Este 0 -- -- 96
2020-05-24 01:00:00 13.9 7 Este 14 Este 0 -- -- 93
2020-05-24 00:00:00 13.9 2 Oeste 12 Norte 0 -- -- 93
2020-05-23 23:00:00 14.8 8 Norte 12 Noroeste 0 -- -- 93
2020-05-23 22:00:00 15.5 6 Norte 10 Norte 0 -- -- 94
2020-05-23 21:00:00 16.1 4 Noroeste 15 Norte 0 -- -- 91
2020-05-23 20:00:00 17.6 7 Norte 10 Norte 0 -- -- 87
2020-05-23 19:00:00 16.2 5 Norte 10 Norte 0.2 -- -- 95
2020-05-23 18:00:00 16 8 Nordeste 35 Norte 5.4 -- -- 97
2020-05-23 17:00:00 18.9 22 Norte 33 Norte 0 -- -- 77
2020-05-23 16:00:00 21.8 14 Este 26 Este 0 -- -- 62
2020-05-23 15:00:00 23.6 12 Este 22 Nordeste 0 -- -- 53
2020-05-23 14:00:00 23.2 14 Nordeste 21 Este 0 -- -- 56
2020-05-23 13:00:00 22.4 11 Sudeste 26 Sudeste 0 -- -- 50
2020-05-23 12:00:00 22.9 16 Sur 26 Sudeste 0 -- -- 49
2020-05-23 11:00:00 22.6 15 Sur 26 Sur 0 -- -- 51
2020-05-23 10:00:00 22 10 Sudoeste 23 Sudoeste 0 -- -- 52
2020-05-23 09:00:00 19.5 17 Sudoeste 27 Sudoeste 0 -- -- 54
2020-05-23 08:00:00 17.6 15 Sudoeste 23 Sudoeste 0 -- -- 58
2020-05-23 07:00:00 14.7 19 Sudoeste 22 Sudoeste 0 -- -- 65
2020-05-23 06:00:00 14 18 Sudoeste 21 Sudoeste 0 -- -- 56
2020-05-23 05:00:00 13.7 16 Sudoeste 18 Sudoeste 0 -- -- 62
2020-05-23 04:00:00 13.8 15 Sudoeste 18 Sudoeste 0 -- -- 65
2020-05-23 03:00:00 14.1 14 Sudoeste 18 Sudoeste 0 -- -- 63
2020-05-23 02:00:00 14.2 13 Sudoeste 22 Sudoeste 0 -- -- 60
2020-05-23 01:00:00 15 13 Sudoeste 19 Sudoeste 0 -- -- 58
2020-05-23 00:00:00 15 12 Sudoeste 21 Sur 0 -- -- 68
2020-05-22 23:00:00 16.3 12 Sur 18 Sur 0 -- -- 62
2020-05-22 22:00:00 14.9 11 Sur 13 Sudoeste 0 -- -- 68
2020-05-22 21:00:00 16.9 4 Sur 19 Este 0 -- -- 71
2020-05-22 20:00:00 19.7 13 Este 27 Este 0 -- -- 65
2020-05-22 19:00:00 21 16 Este 27 Este 0 -- -- 63
2020-05-22 18:00:00 21.1 16 Este 30 Este 0 -- -- 61
2020-05-22 17:00:00 22.7 19 Este 29 Este 0 -- -- 54
2020-05-22 16:00:00 23.1 13 Este 27 Este 0 -- -- 49
2020-05-22 15:00:00 23.3 15 Sudeste 23 Este 0 -- -- 47
2020-05-22 14:00:00 22.7 12 Nordeste 24 Este 0 -- -- 49
2020-05-22 13:00:00 23.8 11 Este 24 Este 0 -- -- 42
2020-05-22 12:00:00 23.3 5 Este 18 Este 0 -- -- 38
2020-05-22 11:00:00 23.2 7 Nordeste 12 Norte 0 -- -- 38
2020-05-22 10:00:00 22.7 4 Nordeste 8 Norte 0 -- -- 38
2020-05-22 09:00:00 20.7 4 Norte 8 Oeste 0 -- -- 55
2020-05-22 08:00:00 17.2 4 Oeste 14 Oeste 0 -- -- 55
2020-05-22 07:00:00 13.5 9 Oeste 15 Noroeste 0 -- -- 57
2020-05-22 06:00:00 12.8 14 Oeste 17 Oeste 0 -- -- 58
2020-05-22 05:00:00 13.7 9 Sudoeste 13 Oeste 0 -- -- 64
2020-05-22 04:00:00 13.5 8 Oeste 14 Sudoeste 0 -- -- 72
2020-05-22 03:00:00 13.7 9 Sudoeste 15 Sudoeste 0 -- -- 74
2020-05-22 02:00:00 14.5 12 Sudoeste 17 Sudoeste 0 -- -- 69
2020-05-22 01:00:00 13.9 12 Sudoeste 15 Sudoeste 0 -- -- 72
2020-05-22 00:00:00 13.9 9 Sudoeste 12 Sudoeste 0 -- -- 76
2020-05-21 23:00:00 13.5 9 Sudoeste 13 Sudoeste 0 -- -- 80
2020-05-21 22:00:00 13.6 4 Sudoeste 10 Sudoeste 0 -- -- 80
2020-05-21 21:00:00 15.9 2 Oeste 10 Sur 0 -- -- 73
2020-05-21 20:00:00 19.4 8 Sur 18 Sur 0 -- -- 60
2020-05-21 19:00:00 20.5 10 Sur 20 Sur 0 -- -- 59
2020-05-21 18:00:00 21.4 10 Sudeste 20 Sur 0 -- -- 55
2020-05-21 17:00:00 18.3 10 Nordeste 26 Nordeste 0 -- -- 64
2020-05-21 16:00:00 21 11 Sur 25 Sudeste 0 -- -- 57
2020-05-21 15:00:00 19.9 7 Este 27 Este 0 -- -- 58
2020-05-21 14:00:00 20.8 15 Nordeste 25 Este 0 -- -- 54
2020-05-21 13:00:00 21.9 12 Sudeste 21 Sudeste 0 -- -- 47
2020-05-21 12:00:00 21.3 12 Este 19 Este 0 -- -- 51
2020-05-21 11:00:00 20.2 12 Sudeste 20 Sudeste 0 -- -- 52
2020-05-21 10:00:00 19.1 12 Sur 22 Sur 0 -- -- 58
2020-05-21 09:00:00 17.9 10 Sur 15 Sur 0 -- -- 58
2020-05-21 08:00:00 15.7 10 Sudoeste 16 Sudoeste 0 -- -- 66
2020-05-21 07:00:00 10.3 8 Sudoeste 13 Sudoeste 0 -- -- 77
2020-05-21 06:00:00 9.7 8 Sudoeste 13 Sudoeste 0 -- -- 73
2020-05-21 05:00:00 10.3 9 Sudoeste 12 Sudoeste 0 -- -- 74
2020-05-21 04:00:00 12.6 6 Sudoeste 12 Sudoeste 0 -- -- 66
2020-05-21 03:00:00 12.2 8 Sudoeste 14 Sudoeste 0 -- -- 85
2020-05-21 02:00:00 12.4 12 Sudoeste 14 Sudoeste 0 -- -- 83
2020-05-21 01:00:00 12.3 7 Sudoeste 10 Sudoeste 0 -- -- 73
2020-05-21 00:00:00 12.3 8 Oeste 11 Sudoeste 0 -- -- 75
2020-05-20 23:00:00 12.8 9 Sudoeste 12 Sudoeste 0 -- -- 78
2020-05-20 22:00:00 14.4 5 Sudoeste 9 Sudoeste 0 -- -- 77
2020-05-20 21:00:00 16.4 2 Oeste 13 Este 0 -- -- 73
2020-05-20 20:00:00 18 4 Nordeste 14 Sudeste 0 -- -- 69
2020-05-20 19:00:00 19.3 12 Este 20 Este 0 -- -- 63
2020-05-20 18:00:00 21.9 11 Este 21 Este 0 -- -- 57
2020-05-20 17:00:00 21.3 11 Este 23 Este 0 -- -- 59
2020-05-20 16:00:00 21.8 9 Nordeste 26 Norte 0 -- -- 53
2020-05-20 15:00:00 21.7 12 Este 23 Este 0 -- -- 54
2020-05-20 14:00:00 21.7 13 Este 27 Nordeste 0 -- -- 50
2020-05-20 13:00:00 21.4 12 Este 22 Nordeste 0 -- -- 50
2020-05-20 12:00:00 20.7 6 Este 18 Sudeste 0 -- -- 45
2020-05-20 11:00:00 20.1 6 Nordeste 16 Este 0 -- -- 46
2020-05-20 10:00:00 18.7 9 Este 14 Este 0 -- -- 53
2020-05-20 09:00:00 16.7 4 Sudeste 10 Sudoeste 0 -- -- 54
2020-05-20 08:00:00 14.5 12 Oeste 20 Oeste 0 -- -- 57
2020-05-20 07:00:00 9.8 12 Oeste 16 Noroeste 0 -- -- 73
2020-05-20 06:00:00 9.7 10 Oeste 15 Noroeste 0 -- -- 75
2020-05-20 05:00:00 9.8 0 Calma 13 Noroeste 0 -- -- 69
2020-05-20 04:00:00 10 8 Oeste 14 Oeste 0 -- -- 69
2020-05-20 03:00:00 10.5 7 Noroeste 17 Noroeste 0 -- -- 67
2020-05-20 02:00:00 11 14 Oeste 20 Oeste 0 -- -- 54
2020-05-20 01:00:00 11.6 11 Oeste 22 Oeste 0 -- -- 55
2020-05-20 00:00:00 11.5 2 Oeste 20 Oeste 0 -- -- 71
2020-05-19 23:00:00 13.9 15 Oeste 26 Oeste 0 -- -- 63
2020-05-19 22:00:00 14.3 14 Noroeste 21 Oeste 0 -- -- 64
2020-05-19 21:00:00 15.3 4 Oeste 9 Sudoeste 0 -- -- 64
2020-05-19 20:00:00 17.6 6 Sur 17 Sudoeste 0 -- -- 54
2020-05-19 19:00:00 18.4 9 Sur 22 Oeste 0 -- -- 46
2020-05-19 18:00:00 19.9 6 Oeste 17 Este 0 -- -- 46
2020-05-19 17:00:00 20.4 9 Nordeste 20 Este 0 -- -- 46
2020-05-19 16:00:00 21 9 Nordeste 21 Este 0 -- -- 48
2020-05-19 15:00:00 20.7 7 Nordeste 25 Sudeste 0 -- -- 42
2020-05-19 14:00:00 19.9 17 Sudeste 26 Este 0 -- -- 48
2020-05-19 13:00:00 20.2 9 Nordeste 18 Nordeste 0 -- -- 44
2020-05-19 12:00:00 19.5 11 Nordeste 19 Nordeste 0 -- -- 45
2020-05-19 11:00:00 17.5 14 Noroeste 22 Norte 0 -- -- 45
2020-05-19 10:00:00 17.2 8 Noroeste 13 Norte 0 -- -- 47
2020-05-19 09:00:00 15.4 7 Nordeste 12 Norte 0 -- -- 54
2020-05-19 08:00:00 12.1 3 Norte 9 Noroeste 0 -- -- 67
2020-05-19 07:00:00 8.5 2 Sur 20 Oeste 0 -- -- 71
2020-05-19 06:00:00 7.8 5 Oeste 13 Oeste 0 -- -- 75
2020-05-19 05:00:00 8 3 Norte 9 Oeste 0 -- -- 74
2020-05-19 04:00:00 7.8 6 Noroeste 13 Oeste 0 -- -- 74
2020-05-19 03:00:00 8.3 2 Sur 15 Oeste 0 -- -- 74
2020-05-19 02:00:00 10 17 Oeste 21 Oeste 0 -- -- 71
2020-05-19 01:00:00 9.9 14 Oeste 22 Oeste 0 -- -- 74
2020-05-19 00:00:00 8.9 3 Nordeste 11 Sudoeste 0 -- -- 78
2020-05-18 23:00:00 10.3 13 Oeste 20 Noroeste 0 -- -- 73
2020-05-18 22:00:00 10.3 10 Oeste 16 Noroeste 0 -- -- 72
2020-05-18 21:00:00 13.3 12 Noroeste 22 Oeste 0 -- -- 59
2020-05-18 20:00:00 16.5 12 Noroeste 24 Oeste 0 -- -- 49
2020-05-18 19:00:00 17.8 14 Noroeste 28 Oeste 0 -- -- 41
2020-05-18 18:00:00 18.5 12 Noroeste 31 Oeste 0 -- -- 39
2020-05-18 17:00:00 18.5 14 Noroeste 28 Noroeste 0 -- -- 37
2020-05-18 16:00:00 19.1 10 Oeste 25 Oeste 0 -- -- 42
2020-05-18 15:00:00 17.7 10 Este 24 Este 0 -- -- 51
2020-05-18 14:00:00 17.6 15 Este 25 Este 0 -- -- 54
2020-05-18 13:00:00 18.2 12 Norte 24 Norte 0 -- -- 36
2020-05-18 12:00:00 17.3 10 Norte 38 Nordeste 0 -- -- 43
2020-05-18 11:00:00 16.3 5 Norte 15 Este 0 -- -- 45
2020-05-18 10:00:00 14.8 8 Este 12 Norte 0 -- -- 51
2020-05-18 09:00:00 12.9 4 Nordeste 12 Oeste 0 -- -- 54
2020-05-18 08:00:00 10.3 0 Calma 12 Oeste 0 -- -- 52
2020-05-18 07:00:00 6.1 2 Noroeste 12 Sudoeste 0 -- -- 55
2020-05-18 06:00:00 5.6 3 Sudoeste 19 Noroeste 0 -- -- 62
2020-05-18 05:00:00 5.5 13 Oeste 17 Oeste 0 -- -- 66
2020-05-18 04:00:00 5.3 8 Oeste 13 Sudoeste 0 -- -- 65
2020-05-18 03:00:00 5.9 5 Sudoeste 10 Oeste 0 -- -- 66
2020-05-18 02:00:00 6.7 4 Oeste 21 Oeste 0 -- -- 73
2020-05-18 01:00:00 7.4 15 Noroeste 27 Oeste 0 -- -- 81
2020-05-18 00:00:00 8.4 23 Oeste 31 Oeste 0 -- -- 81
2020-05-17 23:00:00 9.1 19 Oeste 24 Oeste 0 -- -- 82
2020-05-17 22:00:00 8.8 5 Oeste 13 Noroeste 0 -- -- 82
2020-05-17 21:00:00 10.7 3 Noroeste 17 Noroeste 0 -- -- 74
2020-05-17 20:00:00 13.2 9 Norte 21 Noroeste 0 -- -- 68
2020-05-17 19:00:00 14 14 Norte 22 Nordeste 0 -- -- 63
2020-05-17 18:00:00 14 12 Nordeste 20 Nordeste 0 -- -- 64
2020-05-17 17:00:00 12 5 Norte 16 Norte 0 -- -- 71
2020-05-17 16:00:00 12.3 6 Norte 23 Norte 0 -- -- 72
2020-05-17 15:00:00 12.9 13 Nordeste 22 Este 0 -- -- 70
2020-05-17 14:00:00 14.1 10 Este 19 Este 0 -- -- 57
2020-05-17 13:00:00 11.7 9 Norte 17 Nordeste 0 -- -- 66
2020-05-17 12:00:00 11.9 9 Norte 15 Nordeste 0 -- -- 66
2020-05-17 11:00:00 12.5 9 Norte 17 Norte 0 -- -- 66
2020-05-17 10:00:00 11 9 Norte 19 Norte 0 -- -- 75
2020-05-17 09:00:00 9.4 8 Noroeste 21 Norte 0 -- -- 79
2020-05-17 08:00:00 6.9 3 Este 27 Oeste 0 -- -- 89
2020-05-17 07:00:00 5 17 Noroeste 28 Oeste 0 -- -- 93
2020-05-17 06:00:00 5.5 19 Oeste 29 Oeste 0 -- -- 90
2020-05-17 05:00:00 5.8 23 Oeste 38 Oeste 0 -- -- 91
2020-05-17 04:00:00 5.2 24 Oeste 37 Oeste 0 -- -- 94
2020-05-17 03:00:00 5.6 28 Oeste 40 Oeste 0 -- -- 93
2020-05-17 02:00:00 5.6 22 Oeste 34 Oeste 0 -- -- 96
2020-05-17 01:00:00 5.9 17 Oeste 24 Oeste 0 -- -- 97
2020-05-17 00:00:00 6 6 Noroeste 26 Oeste 0.4 -- -- 97
2020-05-16 23:00:00 5.4 6 Noroeste 35 Noroeste 2.6 -- -- 97
2020-05-16 22:00:00 6.8 21 Oeste 27 Oeste 0.2 -- -- 93
2020-05-16 21:00:00 7.8 15 Oeste 22 Oeste 0 -- -- 88
2020-05-16 20:00:00 8.4 18 Oeste 36 Oeste 0 -- -- 80
2020-05-16 19:00:00 8.9 26 Oeste 39 Noroeste 0 -- -- 81
2020-05-16 18:00:00 11.5 15 Noroeste 28 Noroeste 0 -- -- 71
2020-05-16 17:00:00 12.1 8 Noroeste 26 Oeste 0 -- -- 70
2020-05-16 16:00:00 11.4 15 Noroeste 28 Norte 0 -- -- 75
2020-05-16 15:00:00 10.3 10 Norte 22 Norte 0.4 -- -- 85
2020-05-16 14:00:00 11.8 14 Norte 24 Norte 0 -- -- 71
2020-05-16 13:00:00 11 9 Norte 18 Norte 0 -- -- 80
2020-05-16 12:00:00 9 10 Noroeste 24 Noroeste 0 -- -- 85
2020-05-16 11:00:00 7.8 14 Noroeste 21 Noroeste 0 -- -- 89
2020-05-16 10:00:00 7.1 12 Noroeste 19 Noroeste 0 -- -- 92
2020-05-16 09:00:00 6.5 9 Noroeste 17 Norte 0 -- -- 95
2020-05-16 08:00:00 5.3 11 Noroeste 18 Noroeste 0 -- -- 100
2020-05-16 07:00:00 5.4 12 Noroeste 19 Noroeste 0 -- -- 99
2020-05-16 06:00:00 5.5 9 Noroeste 18 Norte 0 -- -- 98
2020-05-16 05:00:00 5.7 10 Noroeste 15 Noroeste 0 -- -- 98
2020-05-16 04:00:00 5.6 7 Norte 12 Norte 1.4 -- -- 99
2020-05-16 03:00:00 5.7 8 Oeste 20 Noroeste 2.8 -- -- 97
2020-05-16 02:00:00 6 8 Oeste 17 Este 3.4 -- -- 96
2020-05-16 01:00:00 6.2 10 Noroeste 21 Noroeste 2 -- -- 96
2020-05-16 00:00:00 6.2 10 Noroeste 15 Noroeste 1 -- -- 93
2020-05-15 23:00:00 6.4 4 Noroeste 15 Noroeste 2.2 -- -- 94
2020-05-15 22:00:00 7.1 4 Sudeste 10 Norte 2 -- -- 96
2020-05-15 21:00:00 7.6 0 Calma 16 Este 0.8 -- -- 98
2020-05-15 20:00:00 8.1 7 Nordeste 15 Este 0.4 -- -- 98
2020-05-15 19:00:00 7.9 6 Nordeste 17 Este 0.6 -- -- 98
2020-05-15 18:00:00 8.4 9 Este 24 Este 1 -- -- 92
2020-05-15 17:00:00 10.7 5 Sudeste 21 Este 0.2 -- -- 79
2020-05-15 16:00:00 11.4 10 Este 28 Este 0 -- -- 72
2020-05-15 15:00:00 10.8 19 Este 31 Este 0 -- -- 80
2020-05-15 14:00:00 10.5 15 Este 30 Este 0 -- -- 79
2020-05-15 13:00:00 10.6 17 Este 27 Nordeste 0 -- -- 80
2020-05-15 12:00:00 10.8 11 Nordeste 22 Este 0 -- -- 75
2020-05-15 11:00:00 11.3 6 Nordeste 20 Norte 0 -- -- 69
2020-05-15 10:00:00 9.4 17 Noroeste 31 Oeste 0 -- -- 78
2020-05-15 09:00:00 8.2 22 Oeste 31 Oeste 0 -- -- 77
2020-05-15 08:00:00 6.6 7 Este 18 Nordeste 0 -- -- 85
2020-05-15 07:00:00 4.8 17 Oeste 29 Oeste 0 -- -- 89
2020-05-15 06:00:00 5.2 18 Oeste 38 Oeste 0 -- -- 86
2020-05-15 05:00:00 5 23 Oeste 41 Oeste 0 -- -- 88
2020-05-15 04:00:00 5 19 Oeste 47 Oeste 0.2 -- -- 89
2020-05-15 03:00:00 5.2 9 Sudoeste 41 Noroeste 0 -- -- 88
2020-05-15 02:00:00 5.1 24 Oeste 41 Oeste 0 -- -- 89
2020-05-15 01:00:00 4.7 27 Oeste 42 Oeste 0 -- -- 91
2020-05-15 00:00:00 4.4 27 Oeste 42 Oeste 0.6 -- -- 91
2020-05-14 23:00:00 4.6 26 Oeste 44 Oeste 0.4 -- -- 91
2020-05-14 22:00:00 5.1 31 Oeste 44 Oeste 0 -- -- 89
2020-05-14 21:00:00 5.6 26 Oeste 44 Oeste 0 -- -- 88
2020-05-14 20:00:00 6 26 Oeste 44 Oeste 0 -- -- 87
2020-05-14 19:00:00 6.5 21 Oeste 39 Oeste 0 -- -- 87
2020-05-14 18:00:00 6.8 20 Oeste 37 Oeste 0 -- -- 85
2020-05-14 17:00:00 6.9 15 Oeste 30 Oeste 0 -- -- 87
2020-05-14 16:00:00 6.9 10 Noroeste 22 Oeste 0.2 -- -- 87
2020-05-14 15:00:00 7.4 6 Oeste 15 Oeste 0.2 -- -- 88
2020-05-14 14:00:00 6.4 8 Noroeste 14 Oeste 1 -- -- 89
2020-05-14 13:00:00 6 3 Norte 14 Nordeste 1.6 -- -- 91
2020-05-14 12:00:00 5.4 9 Este 19 Este 5 -- -- 97
2020-05-14 11:00:00 6.3 8 Este 20 Este 2.4 -- -- 98
2020-05-14 10:00:00 6.6 2 Este 9 Nordeste 0.2 -- -- 97
2020-05-14 09:00:00 6.7 5 Nordeste 9 Este 0 -- -- 94
2020-05-14 08:00:00 6.5 9 Este 13 Este 0 -- -- 93
2020-05-14 07:00:00 6.7 3 Este 5 Este 0 -- -- 93
2020-05-14 06:00:00 6.3 3 Nordeste 6 Nordeste 0 -- -- 94
2020-05-14 05:00:00 5.1 3 Oeste 8 Sudoeste 0 -- -- 96
2020-05-14 04:00:00 6.2 4 Sudoeste 8 Sudoeste 0 -- -- 96
2020-05-14 03:00:00 6.7 0 Calma 4 Nordeste 0 -- -- 98
2020-05-14 02:00:00 5.9 0 Calma 6 Sudoeste 0 -- -- 95
2020-05-14 01:00:00 6.1 5 Sudoeste 9 Sudoeste 0 -- -- 94
2020-05-14 00:00:00 7.1 5 Sudoeste 9 Oeste 0 -- -- 92
2020-05-13 23:00:00 7.9 4 Noroeste 9 Noroeste 0 -- -- 94
2020-05-13 22:00:00 8.4 2 Noroeste 14 Nordeste 0.4 -- -- 91
2020-05-13 21:00:00 9.5 7 Este 18 Este 0 -- -- 93
2020-05-13 20:00:00 10.4 10 Este 18 Este 0 -- -- 83
2020-05-13 19:00:00 11.2 9 Este 23 Este 0 -- -- 79
2020-05-13 18:00:00 12.6 6 Nordeste 17 Nordeste 0 -- -- 67
2020-05-13 17:00:00 12.4 8 Norte 15 Norte 0 -- -- 65
2020-05-13 16:00:00 11.9 8 Sudeste 17 Este 0 -- -- 67
2020-05-13 15:00:00 11.7 5 Nordeste 19 Nordeste 0 -- -- 69
2020-05-13 14:00:00 12.6 5 Sudoeste 18 Este 0 -- -- 69
2020-05-13 13:00:00 11 10 Oeste 23 Oeste 0 -- -- 63
2020-05-13 12:00:00 10.2 12 Oeste 22 Oeste 0 -- -- 69
2020-05-13 11:00:00 9.6 11 Oeste 32 Sudoeste 0 -- -- 72
2020-05-13 10:00:00 8.8 10 Oeste 35 Oeste 0 -- -- 74
2020-05-13 09:00:00 7.1 18 Oeste 37 Oeste 0 -- -- 81
2020-05-13 08:00:00 6 26 Oeste 42 Oeste 0 -- -- 83
2020-05-13 07:00:00 4 9 Oeste 25 Oeste 0 -- -- 92
2020-05-13 06:00:00 3.2 8 Norte 28 Oeste 0 -- -- 93
2020-05-13 05:00:00 4 10 Oeste 31 Oeste 0 -- -- 91
2020-05-13 04:00:00 4.2 19 Oeste 34 Oeste 0 -- -- 89
2020-05-13 03:00:00 4.7 17 Oeste 26 Oeste 0 -- -- 89
2020-05-13 02:00:00 5.4 11 Sudoeste 24 Sudoeste 1 -- -- 92
2020-05-13 01:00:00 5.3 15 Sudoeste 27 Sudoeste 1 -- -- 94
2020-05-13 00:00:00 6.5 10 Este 21 Sudeste 0 -- -- 100
2020-05-12 23:00:00 6.8 16 Este 30 Este 0.6 -- -- 100
2020-05-12 22:00:00 7 16 Este 36 Este 0.6 -- -- 100
2020-05-12 21:00:00 7.6 18 Este 30 Sudeste 0.4 -- -- 98
2020-05-12 20:00:00 8.1 10 Este 28 Este 0 -- -- 96
2020-05-12 19:00:00 8.5 15 Este 26 Este 0.4 -- -- 96
2020-05-12 18:00:00 9 14 Este 31 Este 0.2 -- -- 96
2020-05-12 17:00:00 9.5 17 Este 32 Este 0 -- -- 90
2020-05-12 16:00:00 11.2 20 Este 28 Este 0 -- -- 78
2020-05-12 15:00:00 12 12 Nordeste 27 Este 0 -- -- 75
2020-05-12 14:00:00 10.5 12 Sudeste 30 Este 0 -- -- 80
2020-05-12 13:00:00 14.4 20 Este 30 Este 0 -- -- 67
2020-05-12 12:00:00 12.8 3 Nordeste 13 Nordeste 0 -- -- 67
2020-05-12 11:00:00 9.4 3 Sur 7 Sudeste 0 -- -- 77
2020-05-12 10:00:00 9.1 3 Sudoeste 9 Sur 0 -- -- 77
2020-05-12 09:00:00 8.9 3 Sur 9 Sur 0 -- -- 81
2020-05-12 08:00:00 7.4 6 Sudoeste 10 Sur 0 -- -- 83
2020-05-12 07:00:00 6.3 0 Calma 13 Oeste 0 -- -- 84
2020-05-12 06:00:00 6 6 Oeste 14 Oeste 0 -- -- 89
2020-05-12 05:00:00 6.5 8 Sur 15 Oeste 0 -- -- 86
2020-05-12 04:00:00 6.4 4 Sudoeste 26 Oeste 0 -- -- 87
2020-05-12 03:00:00 6.9 5 Noroeste 31 Oeste 0 -- -- 84
2020-05-12 02:00:00 7.9 18 Oeste 40 Oeste 0 -- -- 81
2020-05-12 01:00:00 7.8 18 Oeste 30 Noroeste 0 -- -- 81
2020-05-12 00:00:00 7.8 4 Noroeste 28 Noroeste 0.2 -- -- 82
2020-05-11 23:00:00 8 10 Noroeste 28 Oeste 0 -- -- 80
2020-05-11 22:00:00 8.1 10 Oeste 18 Oeste 0 -- -- 80
2020-05-11 21:00:00 9 9 Oeste 23 Oeste 0 -- -- 80
2020-05-11 20:00:00 9.6 11 Oeste 38 Oeste 0.2 -- -- 81
2020-05-11 19:00:00 11.1 13 Oeste 28 Sudoeste 0 -- -- 72
2020-05-11 18:00:00 14.2 18 Sudoeste 44 Oeste 0 -- -- 53
2020-05-11 17:00:00 15.1 23 Oeste 51 Sudoeste 0 -- -- 51
2020-05-11 16:00:00 15.3 26 Sudoeste 51 Sudoeste 0 -- -- 50
2020-05-11 15:00:00 14.2 25 Oeste 51 Oeste 0 -- -- 51
2020-05-11 14:00:00 13.8 29 Sudoeste 54 Oeste 0 -- -- 52
2020-05-11 13:00:00 13 29 Oeste 52 Oeste 0 -- -- 48
2020-05-11 12:00:00 11.8 33 Oeste 51 Sudoeste 0 -- -- 54
2020-05-11 11:00:00 10.8 20 Oeste 52 Oeste 0 -- -- 59
2020-05-11 10:00:00 10.1 28 Oeste 64 Oeste 0 -- -- 60
2020-05-11 09:00:00 8 36 Oeste 59 Oeste 0 -- -- 70
2020-05-11 08:00:00 7.2 18 Oeste 39 Oeste 0 -- -- 76
2020-05-11 07:00:00 5.8 16 Oeste 57 Oeste 0 -- -- 80
2020-05-11 06:00:00 6 34 Oeste 58 Oeste 0 -- -- 79
2020-05-11 05:00:00 6.4 34 Oeste 57 Oeste 0 -- -- 73
2020-05-11 04:00:00 6.2 31 Oeste 48 Oeste 0 -- -- 78
2020-05-11 03:00:00 6.1 24 Oeste 44 Oeste 0 -- -- 83
2020-05-11 02:00:00 6.4 17 Oeste 29 Oeste 0 -- -- 82
2020-05-11 01:00:00 6.6 9 Sudoeste 28 Sudoeste 0 -- -- 81
2020-05-11 00:00:00 6.8 8 Sudoeste 21 Sudoeste 0 -- -- 79
2020-05-10 23:00:00 7.4 12 Sudoeste 26 Sudoeste 0 -- -- 76
2020-05-10 22:00:00 8.2 12 Sudoeste 22 Oeste 0 -- -- 72
2020-05-10 21:00:00 8.7 8 Oeste 28 Sudoeste 0 -- -- 69
2020-05-10 20:00:00 10.4 18 Sudoeste 40 Oeste 0 -- -- 61
2020-05-10 19:00:00 10.5 20 Oeste 42 Oeste 0 -- -- 62
2020-05-10 18:00:00 10.2 23 Oeste 50 Sudoeste 0 -- -- 71
2020-05-10 17:00:00 11.1 31 Oeste 53 Oeste 0 -- -- 59
2020-05-10 16:00:00 10.5 26 Oeste 50 Oeste 0 -- -- 61
2020-05-10 15:00:00 10.4 30 Oeste 46 Sudoeste 0 -- -- 69
2020-05-10 14:00:00 11.6 18 Oeste 40 Oeste 0 -- -- 68
2020-05-10 13:00:00 10.7 24 Oeste 34 Noroeste 0 -- -- 68
2020-05-10 12:00:00 11.5 19 Oeste 37 Oeste 0 -- -- 70
2020-05-10 11:00:00 8.9 17 Oeste 34 Oeste 0 -- -- 82
2020-05-10 10:00:00 8.6 16 Oeste 24 Oeste 0 -- -- 86
2020-05-10 09:00:00 8.8 7 Oeste 16 Oeste 0.4 -- -- 91
2020-05-10 08:00:00 8.8 10 Sudoeste 17 Sudoeste 0.2 -- -- 93
2020-05-10 07:00:00 8.8 0 Calma 10 Nordeste 0 -- -- 98
2020-05-10 06:00:00 8.9 4 Norte 22 Oeste 0 -- -- 95
2020-05-10 05:00:00 8.5 8 Sudoeste 13 Sur 0 -- -- 96
2020-05-10 04:00:00 9.3 11 Sur 31 Sur 0 -- -- 99
2020-05-10 03:00:00 9.8 13 Sudoeste 21 Sudoeste 0.6 -- -- 91
2020-05-10 02:00:00 10.6 10 Sur 22 Sur 0 -- -- 89
2020-05-10 01:00:00 11.1 13 Sudoeste 22 Sur 0 -- -- 90
2020-05-10 00:00:00 9.9 6 Sudeste 18 Sudoeste 0 -- -- 93
2020-05-09 23:00:00 10.4 14 Sudoeste 20 Sudoeste 0 -- -- 84
2020-05-09 22:00:00 10.7 5 Sudoeste 27 Sudoeste 0.6 -- -- 90
2020-05-09 21:00:00 12.7 13 Sur 23 Sur 0 -- -- 76
2020-05-09 20:00:00 12.6 13 Sur 20 Sur 0 -- -- 91
2020-05-09 19:00:00 14.3 12 Sur 17 Sur 0 -- -- 82
2020-05-09 18:00:00 15.2 11 Sur 21 Sur 0 -- -- 78
2020-05-09 17:00:00 15.8 10 Sur 23 Sur 0 -- -- 76
2020-05-09 16:00:00 15.1 13 Sur 29 Sur 0 -- -- 79
2020-05-09 15:00:00 16.6 17 Sur 28 Sudeste 0 -- -- 70
2020-05-09 14:00:00 16.1 15 Este 31 Este 0 -- -- 75
2020-05-09 13:00:00 16.7 13 Este 27 Este 0 -- -- 71
2020-05-09 12:00:00 17.6 12 Este 29 Este 0 -- -- 66
2020-05-09 11:00:00 17.4 12 Nordeste 25 Este 0 -- -- 64
2020-05-09 10:00:00 17.4 5 Este 23 Oeste 0 -- -- 53
2020-05-09 09:00:00 14.2 18 Noroeste 30 Oeste 0 -- -- 65
2020-05-09 08:00:00 13.1 17 Oeste 31 Oeste 0 -- -- 71
2020-05-09 07:00:00 11 19 Oeste 40 Oeste 0 -- -- 79
2020-05-09 06:00:00 9.7 15 Sudoeste 26 Sur 0 -- -- 73
2020-05-09 05:00:00 11.7 14 Sur 26 Sur 0 -- -- 62
2020-05-09 04:00:00 10.2 6 Sudoeste 23 Sur 0 -- -- 63
2020-05-09 03:00:00 9.6 10 Sur 19 Sur 0 -- -- 61
2020-05-09 02:00:00 10.2 9 Sur 14 Sur 0 -- -- 71
2020-05-09 01:00:00 11.4 10 Sudoeste 16 Sudoeste 0 -- -- 67
2020-05-09 00:00:00 12.1 7 Sur 18 Sudoeste 0 -- -- 53
2020-05-08 23:00:00 12.9 11 Sudoeste 18 Sudoeste 0 -- -- 33
2020-05-08 22:00:00 11.8 7 Sur 11 Sur 0 -- -- 44
2020-05-08 21:00:00 12.5 5 Sudoeste 14 Sur 0 -- -- 56
2020-05-08 20:00:00 15 10 Sur 22 Sudeste 0 -- -- 59
2020-05-08 19:00:00 16.9 15 Sudeste 22 Este 0 -- -- 70
2020-05-08 18:00:00 18.4 13 Este 25 Sudeste 0 -- -- 68
2020-05-08 17:00:00 18.5 8 Sudeste 28 Sudeste 0 -- -- 57
2020-05-08 16:00:00 16.2 12 Sudeste 34 Sur 0 -- -- 65
2020-05-08 15:00:00 16 5 Este 42 Sur 0 -- -- 56
2020-05-08 14:00:00 18.2 18 Este 30 Este 0 -- -- 53
2020-05-08 13:00:00 19.6 15 Este 26 Este 0 -- -- 49
2020-05-08 12:00:00 17.8 13 Este 24 Este 0 -- -- 46
2020-05-08 11:00:00 16.3 10 Sur 23 Sur 0 -- -- 36
2020-05-08 10:00:00 14.3 5 Sudeste 9 Sudeste 0 -- -- 60
2020-05-08 09:00:00 11.6 0 Calma 15 Sudoeste 0 -- -- 72
2020-05-08 08:00:00 10.2 7 Sur 11 Sudeste 0 -- -- 79
2020-05-08 07:00:00 9.1 4 Sur 10 Sudeste 0 -- -- 76
2020-05-08 06:00:00 8.5 5 Sur 9 Sudeste 0 -- -- 79
2020-05-08 05:00:00 8.7 5 Sur 14 Sur 0 -- -- 78
2020-05-08 04:00:00 9.5 8 Sur 15 Sur 0 -- -- 75
2020-05-08 03:00:00 9.2 9 Sur 14 Sur 0 -- -- 78
2020-05-08 02:00:00 8.7 5 Sur 10 Sur 0 -- -- 83
2020-05-08 01:00:00 8.2 3 Sudoeste 8 Sudoeste 0 -- -- 92
2020-05-08 00:00:00 8.9 0 Calma 7 Sudeste 0 -- -- 87
2020-05-07 23:00:00 10.6 5 Sudeste 13 Sur 0 -- -- 79
2020-05-07 22:00:00 11.7 8 Sudeste 18 Sur 0 -- -- 72
2020-05-07 21:00:00 12.3 11 Sur 17 Sur 0 -- -- 71
2020-05-07 20:00:00 13.6 9 Sudeste 19 Este 0 -- -- 69
2020-05-07 19:00:00 15 15 Este 23 Este 0 -- -- 65
2020-05-07 18:00:00 16.2 11 Este 23 Este 0 -- -- 60
2020-05-07 17:00:00 16.3 14 Este 27 Sudeste 0 -- -- 59
2020-05-07 16:00:00 17.8 15 Sudeste 29 Este 0 -- -- 59
2020-05-07 15:00:00 16.7 18 Sudeste 31 Sudeste 0 -- -- 52
2020-05-07 14:00:00 16.8 18 Sudeste 28 Sudeste 0 -- -- 53
2020-05-07 13:00:00 16.3 15 Sudeste 29 Sudeste 0 -- -- 57
2020-05-07 12:00:00 15.6 21 Sudeste 29 Sudeste 0 -- -- 60
2020-05-07 11:00:00 15.2 18 Sudeste 30 Sudeste 0 -- -- 62
2020-05-07 10:00:00 15.3 19 Sudeste 26 Sudeste 0 -- -- 61
2020-05-07 09:00:00 14.5 17 Sudeste 24 Sudeste 0 -- -- 65
2020-05-07 08:00:00 12.7 0 Calma 11 Sudoeste 0 -- -- 64
2020-05-07 07:00:00 9.6 7 Sudoeste 10 Sur 0 -- -- 73
2020-05-07 06:00:00 10.5 4 Sur 14 Sur 0 -- -- 70
2020-05-07 05:00:00 11 10 Sudoeste 14 Sudoeste 0 -- -- 67
2020-05-07 04:00:00 10.3 2 Sudoeste 14 Sudoeste 0 -- -- 66
2020-05-07 03:00:00 10.3 8 Sudoeste 14 Sudoeste 0 -- -- 75
2020-05-07 02:00:00 11.1 11 Sudoeste 15 Sur 0 -- -- 75
2020-05-07 01:00:00 11.4 10 Sudoeste 13 Sudoeste 0 -- -- 78
2020-05-07 00:00:00 10.8 9 Sudoeste 10 Sudoeste 0 -- -- 90
2020-05-06 23:00:00 12.1 0 Calma 6 Noroeste 0 -- -- 90
2020-05-06 22:00:00 12.8 0 Calma 8 Sur 0 -- -- 86
2020-05-06 21:00:00 13.8 4 Sur 15 Este 0 -- -- 84
2020-05-06 20:00:00 16.4 7 Este 12 Este 0 -- -- 78
2020-05-06 19:00:00 16.4 7 Este 19 Este 0 -- -- 78
2020-05-06 18:00:00 15.8 12 Nordeste 23 Este 0 -- -- 79
2020-05-06 17:00:00 16.8 14 Este 30 Este 0 -- -- 73
2020-05-06 16:00:00 17.7 20 Este 30 Este 0 -- -- 68
2020-05-06 15:00:00 19.7 13 Este 27 Este 0 -- -- 60
2020-05-06 14:00:00 20.4 14 Sudeste 32 Sudeste 0 -- -- 47
2020-05-06 13:00:00 19.8 15 Sudeste 31 Sudeste 0 -- -- 47
2020-05-06 12:00:00 18.9 13 Sudeste 26 Sur 0 -- -- 49
2020-05-06 11:00:00 18 12 Sudeste 33 Sudoeste 0 -- -- 51
2020-05-06 10:00:00 16.7 14 Sudoeste 22 Sudoeste 0 -- -- 52
2020-05-06 09:00:00 16.1 3 Sudeste 9 Sudoeste 0 -- -- 54
2020-05-06 08:00:00 12.2 7 Sudoeste 12 Sudoeste 0 -- -- 63
2020-05-06 07:00:00 8.6 0 Calma 17 Oeste 0 -- -- 64
2020-05-06 06:00:00 9.6 11 Oeste 21 Oeste 0 -- -- 54
2020-05-06 05:00:00 9.3 13 Oeste 18 Oeste 0 -- -- 53
2020-05-06 04:00:00 10.8 15 Oeste 18 Oeste 0 -- -- 60
2020-05-06 03:00:00 11.5 11 Sudoeste 14 Sudoeste 0 -- -- 58
2020-05-06 02:00:00 11.2 8 Sudoeste 14 Oeste 0 -- -- 59
2020-05-06 01:00:00 11.4 9 Sudoeste 16 Sudoeste 0 -- -- 53
2020-05-06 00:00:00 11.7 12 Oeste 22 Oeste 0 -- -- 48
2020-05-05 23:00:00 12.7 19 Oeste 23 Oeste 0 -- -- 47
2020-05-05 22:00:00 13.5 13 Oeste 18 Oeste 0 -- -- 52
2020-05-05 21:00:00 15.5 10 Sudoeste 18 Sudoeste 0 -- -- 47
2020-05-05 20:00:00 18.2 10 Sur 19 Sur 0 -- -- 69
2020-05-05 19:00:00 19.3 14 Sur 28 Sur 0 -- -- 64
2020-05-05 18:00:00 20.4 16 Sur 38 Sur 0 -- -- 50
2020-05-05 17:00:00 20.3 18 Sur 37 Sur 0 -- -- 44
2020-05-05 16:00:00 20.1 13 Sudeste 33 Sur 0 -- -- 50
2020-05-05 15:00:00 20 17 Sur 41 Sur 0 -- -- 40
2020-05-05 14:00:00 20 21 Sur 31 Sur 0 -- -- 42
2020-05-05 13:00:00 19.7 21 Sur 31 Sur 0 -- -- 48
2020-05-05 12:00:00 19.5 14 Sur 28 Sur 0 -- -- 48
2020-05-05 11:00:00 18.6 17 Sur 31 Sur 0 -- -- 49
2020-05-05 10:00:00 18.1 11 Sudoeste 31 Sudoeste 0 -- -- 54
2020-05-05 09:00:00 15.6 17 Sudoeste 24 Sudoeste 0 -- -- 61
2020-05-05 08:00:00 12.9 2 Oeste 14 Oeste 0 -- -- 67
2020-05-05 07:00:00 12.3 10 Sudoeste 15 Oeste 0 -- -- 67
2020-05-05 06:00:00 13.6 8 Sur 16 Sudoeste 0 -- -- 62
2020-05-05 05:00:00 13 13 Sudoeste 17 Sudoeste 0 -- -- 67
2020-05-05 04:00:00 13.7 10 Sudoeste 16 Sudoeste 0 -- -- 64
2020-05-05 03:00:00 13.3 10 Sudoeste 15 Sudoeste 0 -- -- 64
2020-05-05 02:00:00 13.7 13 Sudoeste 20 Sudoeste 0 -- -- 61
2020-05-05 01:00:00 15 14 Sudoeste 25 Sudoeste 0 -- -- 56
2020-05-05 00:00:00 15.2 15 Sudoeste 28 Sudoeste 0 -- -- 56
2020-05-04 23:00:00 14.9 17 Sudoeste 26 Sudoeste 0 -- -- 54
2020-05-04 22:00:00 15.4 15 Sudoeste 25 Sudoeste 0 -- -- 65
2020-05-04 21:00:00 15.7 12 Sudoeste 24 Sur 0 -- -- 68
2020-05-04 20:00:00 18 16 Sur 30 Sur 0 -- -- 62
2020-05-04 19:00:00 20.2 14 Sur 23 Sur 0 -- -- 56
2020-05-04 18:00:00 20.3 12 Sur 27 Sur 0 -- -- 56
2020-05-04 17:00:00 22.4 20 Sur 34 Sur 0 -- -- 41
2020-05-04 16:00:00 22.5 23 Sur 35 Sur 0 -- -- 38
2020-05-04 15:00:00 22.1 20 Sur 33 Sur 0 -- -- 37
2020-05-04 14:00:00 21.9 18 Sur 33 Sur 0 -- -- 40
2020-05-04 13:00:00 21 25 Sur 35 Sur 0 -- -- 37
2020-05-04 12:00:00 20.2 23 Sur 32 Sur 0 -- -- 42
2020-05-04 11:00:00 20.8 17 Sur 23 Sur 0 -- -- 46
2020-05-04 10:00:00 19.9 11 Sudeste 21 Sudeste 0 -- -- 54
2020-05-04 09:00:00 18.5 0 Calma 6 Este 0 -- -- 49
2020-05-04 08:00:00 16 5 Sur 15 Oeste 0 -- -- 53
2020-05-04 07:00:00 13.6 0 Calma 13 Sudoeste 0 -- -- 59
2020-05-04 06:00:00 13.8 9 Sudoeste 25 Sudoeste 0 -- -- 60
2020-05-04 05:00:00 14 20 Sudoeste 27 Sudoeste 0 -- -- 60
2020-05-04 04:00:00 13.9 20 Sudoeste 32 Sudoeste 0 -- -- 63
2020-05-04 03:00:00 15 26 Sudoeste 39 Sudoeste 0 -- -- 60
2020-05-04 02:00:00 13.4 14 Sudoeste 18 Sudoeste 0 -- -- 67
2020-05-04 01:00:00 12 4 Sudoeste 21 Sudoeste 0 -- -- 77
2020-05-04 00:00:00 13.1 9 Sudoeste 19 Sudoeste 0 -- -- 75
2020-05-03 23:00:00 14.2 13 Sudoeste 22 Sudoeste 0 -- -- 74
2020-05-03 22:00:00 14.4 15 Sudoeste 27 Sudoeste 0 -- -- 74
2020-05-03 21:00:00 15 19 Sudoeste 26 Sudoeste 0 -- -- 74
2020-05-03 20:00:00 17.3 12 Sur 28 Sudoeste 0 -- -- 71
2020-05-03 19:00:00 18.5 21 Sur 31 Sur 0 -- -- 68
2020-05-03 18:00:00 20 21 Sur 33 Sur 0 -- -- 62
2020-05-03 17:00:00 20.6 22 Sur 35 Sudeste 0 -- -- 61
2020-05-03 16:00:00 21.3 21 Sur 31 Sudeste 0 -- -- 56
2020-05-03 15:00:00 21.6 18 Sur 28 Sudeste 0 -- -- 50
2020-05-03 14:00:00 21.8 9 Sudoeste 27 Oeste 0 -- -- 35
2020-05-03 13:00:00 20.7 13 Sur 30 Sur 0 -- -- 38
2020-05-03 12:00:00 20 13 Sur 28 Sur 0 -- -- 39
2020-05-03 11:00:00 19.1 9 Sur 27 Sur 0 -- -- 47
2020-05-03 10:00:00 18 12 Sur 22 Sur 0 -- -- 47
2020-05-03 09:00:00 15.5 6 Sudeste 10 Sudeste 0 -- -- 58
2020-05-03 08:00:00 13.3 5 Sur 21 Oeste 0 -- -- 65
2020-05-03 07:00:00 11 17 Oeste 27 Oeste 0 -- -- 68
2020-05-03 06:00:00 9.6 13 Sudoeste 18 Sudoeste 0 -- -- 74
2020-05-03 05:00:00 9.2 9 Sudoeste 17 Sudoeste 0 -- -- 81
2020-05-03 04:00:00 9.8 9 Oeste 13 Oeste 0 -- -- 82
2020-05-03 03:00:00 10.1 9 Oeste 14 Sudoeste 0 -- -- 83
2020-05-03 02:00:00 11.2 11 Oeste 18 Oeste 0 -- -- 79
2020-05-03 01:00:00 11.5 15 Oeste 21 Oeste 0 -- -- 74
2020-05-03 00:00:00 12.7 15 Oeste 22 Oeste 0 -- -- 67
2020-05-02 23:00:00 12.2 12 Oeste 14 Oeste 0 -- -- 68
2020-05-02 22:00:00 12.4 9 Oeste 12 Oeste 0 -- -- 67
2020-05-02 21:00:00 14.9 5 Oeste 27 Noroeste 0 -- -- 56
2020-05-02 20:00:00 18.6 15 Oeste 36 Oeste 0 -- -- 40
2020-05-02 19:00:00 19.6 18 Oeste 38 Sudoeste 0 -- -- 36
2020-05-02 18:00:00 20.6 21 Oeste 41 Sudoeste 0 -- -- 40
2020-05-02 17:00:00 20.8 23 Oeste 51 Sudoeste 0 -- -- 43
2020-05-02 16:00:00 20.4 21 Oeste 43 Sudoeste 0 -- -- 43
2020-05-02 15:00:00 19.9 22 Oeste 42 Oeste 0 -- -- 42
2020-05-02 14:00:00 19.4 18 Oeste 39 Sudoeste 0 -- -- 42
2020-05-02 13:00:00 18.3 19 Oeste 36 Oeste 0 -- -- 46
2020-05-02 12:00:00 17.3 18 Oeste 38 Oeste 0 -- -- 51
2020-05-02 11:00:00 16.2 17 Oeste 35 Noroeste 0 -- -- 50
2020-05-02 10:00:00 13.6 24 Oeste 50 Oeste 0 -- -- 62
2020-05-02 09:00:00 12 29 Oeste 55 Oeste 0 -- -- 69
2020-05-02 08:00:00 10.7 33 Oeste 48 Oeste 0 -- -- 77
2020-05-02 07:00:00 10.1 27 Oeste 40 Oeste 0 -- -- 81
2020-05-02 06:00:00 10 24 Oeste 43 Oeste 0 -- -- 84
2020-05-02 05:00:00 10.5 26 Oeste 39 Oeste 0 -- -- 82
2020-05-02 04:00:00 10.5 15 Oeste 28 Oeste 0 -- -- 84
2020-05-02 03:00:00 10.8 19 Oeste 36 Sudoeste 0 -- -- 84
2020-05-02 02:00:00 11.1 23 Oeste 41 Oeste 0 -- -- 82
2020-05-02 01:00:00 11.6 32 Oeste 49 Sudoeste 0 -- -- 79
2020-05-02 00:00:00 12 29 Oeste 46 Oeste 0 -- -- 73
2020-05-01 23:00:00 11.9 27 Sudoeste 40 Sudoeste 0 -- -- 74
2020-05-01 22:00:00 12.2 10 Oeste 28 Sudoeste 0 -- -- 73
2020-05-01 21:00:00 13 17 Oeste 40 Sudoeste 0 -- -- 69
2020-05-01 20:00:00 14.7 15 Oeste 35 Oeste 0 -- -- 64
2020-05-01 19:00:00 15.8 13 Oeste 40 Oeste 0 -- -- 61
2020-05-01 18:00:00 15.9 24 Noroeste 50 Oeste 0 -- -- 60
2020-05-01 17:00:00 17.1 24 Oeste 48 Noroeste 0 -- -- 58
2020-05-01 16:00:00 17.4 19 Oeste 48 Oeste 0 -- -- 56
2020-05-01 15:00:00 17.8 23 Oeste 61 Oeste 0 -- -- 55
2020-05-01 14:00:00 16.2 46 Oeste 67 Oeste 0 -- -- 58
2020-05-01 13:00:00 16.8 32 Oeste 64 Oeste 0 -- -- 57
2020-05-01 12:00:00 15.2 44 Oeste 76 Oeste 0 -- -- 61
2020-05-01 11:00:00 14.9 39 Oeste 59 Oeste 0 -- -- 61
2020-05-01 10:00:00 12.9 30 Oeste 51 Oeste 0 -- -- 64
2020-05-01 09:00:00 11.2 27 Oeste 47 Oeste 0 -- -- 68
2020-05-01 08:00:00 9.5 21 Oeste 36 Oeste 0 -- -- 76
2020-05-01 07:00:00 8.3 23 Oeste 45 Oeste 0 -- -- 79
2020-05-01 06:00:00 7.7 23 Oeste 31 Oeste 0 -- -- 80
2020-05-01 05:00:00 7.7 19 Noroeste 40 Noroeste 0 -- -- 80
2020-05-01 04:00:00 8.4 27 Noroeste 44 Oeste 0 -- -- 77
2020-05-01 03:00:00 8.3 27 Oeste 41 Oeste 0 -- -- 76
2020-05-01 02:00:00 8.4 23 Oeste 44 Oeste 0 -- -- 74
2020-05-01 01:00:00 8 30 Oeste 44 Sudoeste 0 -- -- 79
2020-05-01 00:00:00 8.3 26 Oeste 46 Oeste 0 -- -- 79
2020-04-30 23:00:00 8.4 6 Oeste 24 Sudoeste 0 -- -- 77
2020-04-30 22:00:00 9.6 14 Oeste 36 Sudoeste 0 -- -- 69
2020-04-30 21:00:00 10.1 18 Oeste 38 Oeste 0 -- -- 66
2020-04-30 20:00:00 12 23 Oeste 46 Sudoeste 0 -- -- 58
2020-04-30 19:00:00 12.6 30 Oeste 45 Oeste 0 -- -- 57
2020-04-30 18:00:00 12.5 27 Oeste 46 Oeste 0 -- -- 58
2020-04-30 17:00:00 12.7 24 Oeste 37 Oeste 0 -- -- 58
2020-04-30 16:00:00 13 19 Oeste 41 Oeste 0 -- -- 59
2020-04-30 15:00:00 13.2 21 Oeste 39 Oeste 0 -- -- 56
2020-04-30 14:00:00 12.8 22 Oeste 51 Sudoeste 0 -- -- 58
2020-04-30 13:00:00 12.8 32 Oeste 49 Sudoeste 0 -- -- 55
2020-04-30 12:00:00 11.7 26 Oeste 44 Sudoeste 0 -- -- 58
2020-04-30 11:00:00 11 30 Oeste 51 Oeste 0 -- -- 62
2020-04-30 10:00:00 9.5 27 Oeste 49 Oeste 0 -- -- 67
2020-04-30 09:00:00 7.1 16 Oeste 30 Oeste 0 -- -- 74
2020-04-30 08:00:00 7.1 17 Oeste 37 Oeste 0 -- -- 73
2020-04-30 07:00:00 7.2 6 Oeste 53 Sudoeste 0 -- -- 76
2020-04-30 06:00:00 7.6 24 Sudoeste 58 Sudoeste 0 -- -- 78
2020-04-30 05:00:00 8.3 35 Oeste 59 Oeste 0 -- -- 70
2020-04-30 04:00:00 7.9 45 Oeste 63 Sudoeste 0 -- -- 74
2020-04-30 03:00:00 7.8 27 Oeste 50 Sudoeste 0 -- -- 74
2020-04-30 02:00:00 8 30 Sudoeste 42 Sudoeste 0 -- -- 74
2020-04-30 01:00:00 8.1 16 Oeste 34 Oeste 0 -- -- 71
2020-04-30 00:00:00 8.3 15 Oeste 37 Oeste 0 -- -- 69
2020-04-29 23:00:00 8.6 13 Sudoeste 21 Sudoeste 0 -- -- 67
2020-04-29 22:00:00 9.3 3 Oeste 15 Oeste 0 -- -- 62
2020-04-29 21:00:00 10 13 Oeste 27 Oeste 0 -- -- 59
2020-04-29 20:00:00 11.7 4 Oeste 28 Oeste 0 -- -- 53
2020-04-29 19:00:00 14.3 13 Oeste 33 Noroeste 0 -- -- 45
2020-04-29 18:00:00 14.6 16 Oeste 33 Oeste 0 -- -- 51
2020-04-29 17:00:00 14.9 15 Sudoeste 33 Oeste 0 -- -- 46
2020-04-29 16:00:00 14.6 13 Oeste 37 Oeste 0 -- -- 46
2020-04-29 15:00:00 14.7 21 Oeste 34 Oeste 0 -- -- 47
2020-04-29 14:00:00 15 10 Sudoeste 24 Oeste 0 -- -- 41
2020-04-29 13:00:00 14 8 Norte 24 Noroeste 0 -- -- 43
2020-04-29 12:00:00 12 4 Sudoeste 27 Oeste 0 -- -- 47
2020-04-29 11:00:00 10.3 11 Noroeste 48 Oeste 0 -- -- 51
2020-04-29 10:00:00 8.2 36 Oeste 53 Oeste 0 -- -- 61
2020-04-29 09:00:00 6.6 39 Oeste 59 Oeste 0 -- -- 66
2020-04-29 08:00:00 4.9 25 Oeste 40 Oeste 0 -- -- 72
2020-04-29 07:00:00 3 17 Oeste 24 Oeste 0 -- -- 84
2020-04-29 06:00:00 3.4 8 Oeste 22 Oeste 0 -- -- 85
2020-04-29 05:00:00 4 10 Oeste 22 Oeste 0 -- -- 86
2020-04-29 04:00:00 4.3 15 Oeste 26 Oeste 0 -- -- 87
2020-04-29 03:00:00 2.9 4 Sudoeste 9 Oeste 0 -- -- 86
2020-04-29 02:00:00 2.1 2 Sudoeste 10 Sudoeste 0 -- -- 89
2020-04-29 01:00:00 3.2 9 Oeste 12 Oeste 0 -- -- 84
2020-04-29 00:00:00 3.7 8 Oeste 12 Oeste 0 -- -- 82
2020-04-28 23:00:00 5.4 5 Oeste 12 Oeste 0 -- -- 74
2020-04-28 22:00:00 5.8 7 Oeste 12 Noroeste 0 -- -- 73
2020-04-28 21:00:00 8.7 8 Oeste 18 Oeste 0 -- -- 63
2020-04-28 20:00:00 9.9 11 Oeste 30 Sudoeste 0 -- -- 58
2020-04-28 19:00:00 11.7 20 Oeste 35 Sudoeste 0 -- -- 47
2020-04-28 18:00:00 11.4 12 Sudoeste 32 Oeste 0 -- -- 52
2020-04-28 17:00:00 11.6 18 Oeste 32 Noroeste 0 -- -- 51
2020-04-28 16:00:00 11.8 18 Oeste 34 Sudoeste 0 -- -- 53
2020-04-28 15:00:00 12 17 Sudoeste 33 Sudoeste 0 -- -- 49
2020-04-28 14:00:00 9.8 14 Noroeste 30 Oeste 0 -- -- 62
2020-04-28 13:00:00 9.4 15 Oeste 33 Oeste 0 -- -- 62
2020-04-28 12:00:00 10.1 21 Sudoeste 32 Sudoeste 0 -- -- 59
2020-04-28 11:00:00 9.4 16 Oeste 32 Oeste 0 -- -- 64
2020-04-28 10:00:00 8.2 15 Oeste 37 Noroeste 0 -- -- 64
2020-04-28 09:00:00 6.8 18 Oeste 45 Oeste 0 -- -- 72
2020-04-28 08:00:00 4.8 37 Oeste 50 Oeste 0 -- -- 79
2020-04-28 07:00:00 3.5 24 Oeste 44 Oeste 0 -- -- 86
2020-04-28 06:00:00 4.1 26 Oeste 36 Oeste 0 -- -- 84
2020-04-28 05:00:00 4.2 27 Oeste 55 Oeste 0 -- -- 86
2020-04-28 04:00:00 4.8 36 Oeste 49 Oeste 0 -- -- 85
2020-04-28 03:00:00 4.9 21 Noroeste 40 Oeste 0 -- -- 86
2020-04-28 02:00:00 5.1 18 Oeste 42 Oeste 0 -- -- 82
2020-04-28 01:00:00 5.1 15 Noroeste 34 Oeste 0 -- -- 85
2020-04-28 00:00:00 5.2 21 Oeste 33 Noroeste 0 -- -- 86
2020-04-27 23:00:00 5.3 23 Oeste 36 Oeste 0 -- -- 88
2020-04-27 22:00:00 5.8 23 Oeste 37 Oeste 0 -- -- 85
2020-04-27 21:00:00 6.2 21 Oeste 38 Sur 1 -- -- 87
2020-04-27 20:00:00 9.5 11 Sudeste 17 Sudoeste 0 -- -- 86
2020-04-27 19:00:00 10.8 12 Sudoeste 25 Oeste 0 -- -- 62
2020-04-27 18:00:00 11.5 16 Sudoeste 30 Sudoeste 0 -- -- 60
2020-04-27 17:00:00 12.3 15 Sudoeste 30 Sur 0 -- -- 60
2020-04-27 16:00:00 11.6 15 Sur 35 Sur 0 -- -- 60
2020-04-27 15:00:00 12.6 13 Sur 27 Sur 0 -- -- 62
2020-04-27 14:00:00 11.9 11 Sudoeste 30 Sudoeste 0 -- -- 67
2020-04-27 13:00:00 10.3 17 Oeste 29 Sudoeste 0 -- -- 72
2020-04-27 12:00:00 10.1 13 Sudoeste 26 Oeste 0 -- -- 72
2020-04-27 11:00:00 8.8 9 Sudoeste 21 Sudoeste 0.4 -- -- 86
2020-04-27 10:00:00 8.2 4 Sur 8 Sudeste 1.2 -- -- 96
2020-04-27 09:00:00 8.3 3 Nordeste 6 Norte 0 -- -- 94
2020-04-27 08:00:00 7.3 4 Sudoeste 7 Sudoeste 0 -- -- 95
2020-04-27 07:00:00 7.2 2 Oeste 19 Oeste 0.2 -- -- 97
2020-04-27 06:00:00 7.5 15 Oeste 21 Oeste 0 -- -- 93
2020-04-27 05:00:00 7.3 2 Oeste 9 Oeste 1.2 -- -- 98
2020-04-27 04:00:00 7.9 0 Calma 16 Oeste 0 -- -- 94
2020-04-27 03:00:00 8.2 14 Oeste 19 Sudoeste 0.4 -- -- 89
2020-04-27 02:00:00 7.9 11 Sudoeste 16 Oeste 0.2 -- -- 91
2020-04-27 01:00:00 8.1 8 Sudoeste 21 Oeste 0 -- -- 88
2020-04-27 00:00:00 8 17 Oeste 26 Oeste 0.2 -- -- 88
2020-04-26 23:00:00 9.2 8 Sur 16 Sur 0 -- -- 91
2020-04-26 22:00:00 8.7 6 Sur 15 Sur 0 -- -- 88
2020-04-26 21:00:00 9.6 8 Sur 15 Sur 0 -- -- 84
2020-04-26 20:00:00 10.6 14 Sur 20 Sur 0 -- -- 76
2020-04-26 19:00:00 11.9 10 Sudeste 15 Sudeste 0 -- -- 73
2020-04-26 18:00:00 12.1 10 Sur 24 Sudeste 0 -- -- 71
2020-04-26 17:00:00 10.6 11 Sur 20 Sudeste 0.2 -- -- 89
2020-04-26 16:00:00 9.8 11 Sudeste 18 Nordeste 1 -- -- 93
2020-04-26 15:00:00 11.3 10 Nordeste 23 Este 0 -- -- 74
2020-04-26 14:00:00 12.9 14 Este 24 Este 0 -- -- 63
2020-04-26 13:00:00 14 14 Sudeste 23 Este 0 -- -- 48
2020-04-26 12:00:00 15.4 14 Este 22 Este 0 -- -- 45
2020-04-26 11:00:00 13.3 9 Este 16 Este 0 -- -- 50
2020-04-26 10:00:00 -- 0 Calma -- -- 0 -- -- --
2020-04-26 09:00:00 11.8 5 Noroeste 17 Noroeste 0 -- -- 53
2020-04-26 08:00:00 8.9 13 Noroeste 21 Noroeste 0 -- -- 62
2020-04-26 07:00:00 7 17 Noroeste 24 Oeste 0 -- -- 66
2020-04-26 06:00:00 7.3 18 Oeste 27 Oeste 0 -- -- 70
2020-04-26 05:00:00 8 15 Oeste 22 Oeste 0 -- -- 73
2020-04-26 04:00:00 7.6 12 Oeste 18 Oeste 0 -- -- 82
2020-04-26 03:00:00 6.9 9 Oeste 16 Oeste 0 -- -- 89
2020-04-26 02:00:00 7 14 Oeste 18 Oeste 0 -- -- 89
2020-04-26 01:00:00 7.4 12 Noroeste 16 Oeste 0 -- -- 89
2020-04-26 00:00:00 8.6 15 Oeste 18 Oeste 0 -- -- 84